Ana Sayfa
METAR-TAF:

METAR-TAF

Havaalanları :

Clark's Point, Alaska, Amerika Birleşik Devletleri

Enlem: 58-50-01N, Boylam: 158-31-46W, yükseklik: 24 m

Güncel hava durumu gözlemi

Rapor saat 04:56 UTC de 52 dakika önce yapıldı.
Rüzgar kuzeydoğudan 17 kt
Sıcaklık -3°C
Nem 100%
Basınç 1020 hPa
Görüş mesafesi: 8.0 km
2700 ft yükseklikte az bulutlu
3600 ft yükseklikte çok bulutlu
hafif kar, Pus

METAR: PFCL 010456Z AUTO 05017KT 5SM -SN BR FEW027 OVC036 M03/M03 A3011 RMK AO2 SLP190 P0000 T10281028 FZRANO TSNO

Saat: 21:48 (05:48 UTC)


TAF: eksik

4.000'den fazla havaalanı için hava durumu gözlemleri ve tahminleri (METAR ve TAF raporları).

Kullanılabilir istasyonlar harita üzerinde sarı ve kırmızı noktalarla gösterilir.

İstasyonun adını görmek için fareyi noktanın üzerinde gezdirin.

Sonrasında hava gözlem ve tahminlerini görmek için tıklayın.

Haritayı değiştirmek için: yaklaştırmak için siyah artı işaretli yeşil düğmeye ve uzaklaştırmak için de eksi işaretli düğmeye hızla tıklayın; bitişik haritalar için yeşil okları kullanın.


METAR-TAF: